Aérodrome :
LOGIN :

S'inscrire | Disclaimer

   EN    FR    IT 

 










Légende :    VFR   VFR Marginal   IFR   IFR Intensif   IFR Très Intensif
Visi : 
Plafond : 
>= 8 km
>= 3000ft
5 à 8 km
1000 à 3000 ft
1500m à 5 km
500 à 1000 ft
800 à 1500m
200 à 500 ft
< 800m
< 200 ft
Symboles :   Orages  Brouillard  Fortes neiges  Fortes précipitations  Vent > 20 kt
SIGMETs :   Divers  Orages  Givrage  Turbulence  Onde Orograph.  Cendres Volcan.






- Altitude de l'aérodrome : 39 ft
- Code IATA : ANR


EBAW - Anvers / Antwerpen Deurne

DERNIER METAR :
  • 150220Z AUTO 02005KT CAVOK 04/03 Q1001

METARs EXPIRÉS :
  • 150150Z AUTO 01006KT CAVOK 05/03 Q1001
  • 150120Z AUTO 01005KT CAVOK 04/03 Q1001
  • 150050Z AUTO 02006KT CAVOK 05/03 Q1002
  • 150020Z AUTO 02003KT 340V050 CAVOK 05/03 Q1002
  • 142350Z AUTO 36005KT 330V040 CAVOK 05/03 Q1002

TAF TAF EBAW
Valide du 15 à 00h jusqu'au 15 à 09h UTC


142310Z 1500/1509 04007KT CAVOK
BECMG 1504/1506 BKN006



MET'MAP, la Météo Aéronautique d'un coup d'oeil ! - Copyright ORBIFLY Décembre 2007 - Disclaimer

ORBIFLY MET'MAP TEAM :

Programmation & Développement : Alexandra Zaïnal
Conception & Développement : Baudouin d'Aumeries
Co-Programmation & Développement : Marc-Olivier Méhu
Soutien technique & logistique : Manuel Goepfert

Contact : metmap@orbifly.com




SOURCES & CREDITS :

   NOAA